Time;durP1;ratioP1;P1;durP2;ratioP2;P2;SDS_P1;SDS_P2;PMS_P1;PMS_P2;Temp;Humidity;BMP_temperature;BMP_pressure;BME280_temperature;BME280_humidity;BME280_pressure;Samples;Min_cycle;Max_cycle;Signal;HPM_P1;HPM_P2
2022/07/26 00:02:03;;;;;;;;;;;;;;;;;;4938682;29;19977;-78
2022/07/26 00:04:29;;;;;;;;;;;;;;;;;;4955480;28;19924;-77
2022/07/26 00:06:54;;;;;;;;;;;;;;;;;;4939350;29;20000;-77
2022/07/26 00:09:19;;;;;;;;;;;;;;;;;;4939620;29;20355;-81
2022/07/26 00:11:45;;;;;;;;;;;;;;;;;;4956510;29;19922;-76
2022/07/26 00:14:10;;;;;;;;;;;;;;;;;;4940376;29;19923;-78
2022/07/26 00:16:36;;;;;;;;;;;;;;;;;;4962015;29;19922;-77
2022/07/26 00:19:01;;;;;;;;;;;;;;;;;;4937909;29;19915;-79
2022/07/26 00:21:26;;;;;;;;;;;;;;;;;;4923247;29;19915;-75
2022/07/26 00:23:52;;;;;;;;;;;;;;;;;;4922829;29;20015;-75
2022/07/26 00:26:17;;;;;;;;;;;;;;;;;;4926308;29;19926;-75
2022/07/26 00:28:43;;;;;;;;;;;;;;;;;;4919105;29;19942;-76
2022/07/26 00:31:08;;;;;;;;;;;;;;;;;;4936911;29;20450;-78
2022/07/26 00:33:33;;;;;;;;;;;;;;;;;;4919786;29;19919;-77
2022/07/26 00:35:59;;;;;;;;;;;;;;;;;;4946054;29;19914;-82
2022/07/26 00:38:24;;;;;;;;;;;;;;;;;;4955659;29;19921;-83
2022/07/26 00:40:49;;;;;;;;;;;;;;;;;;4956720;29;19919;-83
2022/07/26 00:43:15;;;;;;;;;;;;;;;;;;4940575;29;19969;-80
2022/07/26 00:45:40;;;;;;;;;;;;;;;;;;4974540;28;19998;-82
2022/07/26 00:48:06;;;;;;;;;;;;;;;;;;4956241;29;20370;-82
2022/07/26 00:50:31;;;;;;;;;;;;;;;;;;4939817;29;19925;-79
2022/07/26 00:52:56;;;;;;;;;;;;;;;;;;4964786;29;19918;-79
2022/07/26 00:55:22;;;;;;;;;;;;;;;;;;4969710;28;19921;-78
2022/07/26 00:57:47;;;;;;;;;;;;;;;;;;4936482;29;19933;-79
2022/07/26 01:00:12;;;;;;;;;;;;;;;;;;4970892;29;19922;-81
2022/07/26 01:02:38;;;;;;;;;;;;;;;;;;4958445;29;19945;-80
2022/07/26 01:05:03;;;;;;;;;;;;;;;;;;4946475;29;20330;-80
2022/07/26 01:07:29;;;;;;;;;;;;;;;;;;4946272;29;19915;-79
2022/07/26 01:09:54;;;;;;;;;;;;;;;;;;4939375;29;19950;-82
2022/07/26 01:12:19;;;;;;;;;;;;;;;;;;4943484;29;19950;-79
2022/07/26 01:14:45;;;;;;;;;;;;;;;;;;4927197;29;19922;-81
2022/07/26 01:17:10;;;;;;;;;;;;;;;;;;4942595;29;19930;-83
2022/07/26 01:19:35;;;;;;;;;;;;;;;;;;4962835;29;19919;-84
2022/07/26 01:22:01;;;;;;;;;;;;;;;;;;4946946;29;20425;-81
2022/07/26 01:24:26;;;;;;;;;;;;;;;;;;4957598;28;19915;-84
2022/07/26 01:26:54;;;;;;;;;;;;;;;;;;4961474;29;20282;-84
2022/07/26 01:29:19;;;;;;;;;;;;;;;;;;4915587;29;19965;-84
2022/07/26 01:31:45;;;;;;;;;;;;;;;;;;4961297;29;19918;-83
2022/07/26 01:34:10;;;;;;;;;;;;;;;;;;4955891;28;20328;-85
2022/07/26 01:36:35;;;;;;;;;;;;;;;;;;4954988;29;19921;-79
2022/07/26 01:39:01;;;;;;;;;;;;;;;;;;4954550;28;19966;-84
2022/07/26 01:41:26;;;;;;;;;;;;;;;;;;4954766;29;19918;-82
2022/07/26 01:43:51;;;;;;;;;;;;;;;;;;4916626;29;20012;-82
2022/07/26 01:46:17;;;;;;;;;;;;;;;;;;4937475;29;20437;-83
2022/07/26 01:48:42;;;;;;;;;;;;;;;;;;4921199;29;20350;-81
2022/07/26 01:51:07;;;;;;;;;;;;;;;;;;4937341;29;19997;-82
2022/07/26 01:53:33;;;;;;;;;;;;;;;;;;4954063;28;19943;-81
2022/07/26 01:55:58;;;;;;;;;;;;;;;;;;4954260;29;19965;-77
2022/07/26 01:58:24;;;;;;;;;;;;;;;;;;4954832;29;19918;-83
2022/07/26 02:00:49;;;;;;;;;;;;;;;;;;4954523;29;19914;-83
2022/07/26 02:03:14;;;;;;;;;;;;;;;;;;4955266;29;20009;-83
2022/07/26 02:05:40;;;;;;;;;;;;;;;;;;4922282;29;19914;-84
2022/07/26 02:08:05;;;;;;;;;;;;;;;;;;4937391;29;19914;-80
2022/07/26 02:13:15;;;;;;;;;;;;;;;;;;4937003;29;19925;-81
2022/07/26 02:15:40;;;;;;;;;;;;;;;;;;4954331;28;19914;-81
2022/07/26 02:18:05;;;;;;;;;;;;;;;;;;4922644;29;19922;-80
2022/07/26 02:20:32;;;;;;;;;;;;;;;;;;4918232;29;19967;-81
2022/07/26 02:22:57;;;;;;;;;;;;;;;;;;4935119;29;20402;-80
2022/07/26 02:25:22;;;;;;;;;;;;;;;;;;4918314;29;19915;-79
2022/07/26 02:27:48;;;;;;;;;;;;;;;;;;4935357;29;20294;-81
2022/07/26 02:30:13;;;;;;;;;;;;;;;;;;4934938;29;19950;-82
2022/07/26 02:32:39;;;;;;;;;;;;;;;;;;4917694;29;20283;-81
2022/07/26 02:35:04;;;;;;;;;;;;;;;;;;4941981;29;19915;-81
2022/07/26 02:37:30;;;;;;;;;;;;;;;;;;4937023;29;19961;-81
2022/07/26 02:39:55;;;;;;;;;;;;;;;;;;4953981;29;20021;-83
2022/07/26 02:42:20;;;;;;;;;;;;;;;;;;4936922;29;19915;-82
2022/07/26 02:44:46;;;;;;;;;;;;;;;;;;4921074;29;19915;-80
2022/07/26 02:47:11;;;;;;;;;;;;;;;;;;4921191;29;20390;-80
2022/07/26 02:49:36;;;;;;;;;;;;;;;;;;4954472;28;19957;-78
2022/07/26 02:52:03;;;;;;;;;;;;;;;;;;4942263;29;19914;-80
2022/07/26 02:54:28;;;;;;;;;;;;;;;;;;4935345;29;19926;-80
2022/07/26 02:56:54;;;;;;;;;;;;;;;;;;4958220;29;19914;-81
2022/07/26 02:59:19;;;;;;;;;;;;;;;;;;4940982;29;19911;-81
2022/07/26 03:01:44;;;;;;;;;;;;;;;;;;4941192;29;19921;-80
2022/07/26 03:04:10;;;;;;;;;;;;;;;;;;4960470;28;19939;-81
2022/07/26 03:06:35;;;;;;;;;;;;;;;;;;4942863;29;20370;-83
2022/07/26 03:09:01;;;;;;;;;;;;;;;;;;4959877;29;19915;-82
2022/07/26 03:11:26;;;;;;;;;;;;;;;;;;4933524;29;19962;-84
2022/07/26 03:13:52;;;;;;;;;;;;;;;;;;4938188;29;20298;-85
2022/07/26 03:16:17;;;;;;;;;;;;;;;;;;4944996;29;19961;-84
2022/07/26 03:18:43;;;;;;;;;;;;;;;;;;4933477;29;19922;-82
2022/07/26 03:21:09;;;;;;;;;;;;;;;;;;4963415;29;19914;-84
2022/07/26 03:23:34;;;;;;;;;;;;;;;;;;4957694;28;19921;-85
2022/07/26 03:26:00;;;;;;;;;;;;;;;;;;4938636;29;19919;-83
2022/07/26 03:28:25;;;;;;;;;;;;;;;;;;4952954;29;19997;-82
2022/07/26 03:30:51;;;;;;;;;;;;;;;;;;4956701;29;20428;-83
2022/07/26 03:33:16;;;;;;;;;;;;;;;;;;4956140;29;19922;-82
2022/07/26 03:35:41;;;;;;;;;;;;;;;;;;4939089;29;19915;-82
2022/07/26 03:38:07;;;;;;;;;;;;;;;;;;4956357;29;20009;-83
2022/07/26 03:40:32;;;;;;;;;;;;;;;;;;4939133;29;19964;-83
2022/07/26 03:42:58;;;;;;;;;;;;;;;;;;4938290;29;19914;-84
2022/07/26 03:45:23;;;;;;;;;;;;;;;;;;4935322;29;20356;-83
2022/07/26 03:47:49;;;;;;;;;;;;;;;;;;4956251;29;19921;-84
2022/07/26 03:50:14;;;;;;;;;;;;;;;;;;4956417;29;20448;-84
2022/07/26 03:52:39;;;;;;;;;;;;;;;;;;4938903;29;20322;-83
2022/07/26 03:56:27;;;;;;;;;;;;;;;;;;4955932;28;19972;-83
2022/07/26 03:57:50;;;;;;;;;;;;;;;;;;4955760;29;19918;-83
2022/07/26 04:00:16;;;;;;;;;;;;;;;;;;4938145;29;20286;-82
2022/07/26 04:02:41;;;;;;;;;;;;;;;;;;4918511;29;20274;-83
2022/07/26 04:05:06;;;;;;;;;;;;;;;;;;4956152;28;20014;-83
2022/07/26 04:07:32;;;;;;;;;;;;;;;;;;4923194;29;19946;-84
2022/07/26 04:09:57;;;;;;;;;;;;;;;;;;4938667;29;20374;-82
2022/07/26 04:12:22;;;;;;;;;;;;;;;;;;4938544;29;20429;-80
2022/07/26 04:14:48;;;;;;;;;;;;;;;;;;4955586;28;20425;-81
2022/07/26 04:17:13;;;;;;;;;;;;;;;;;;4922785;29;19961;-79
2022/07/26 04:19:39;;;;;;;;;;;;;;;;;;4933593;29;20403;-80
2022/07/26 04:22:04;;;;;;;;;;;;;;;;;;4955508;29;19942;-80
2022/07/26 04:24:30;;;;;;;;;;;;;;;;;;4955307;28;20438;-81
2022/07/26 04:26:55;;;;;;;;;;;;;;;;;;4955489;29;20011;-81
2022/07/26 04:29:20;;;;;;;;;;;;;;;;;;4955651;29;19914;-80
2022/07/26 04:31:46;;;;;;;;;;;;;;;;;;4922665;29;19915;-82
2022/07/26 04:34:11;;;;;;;;;;;;;;;;;;4955755;28;19965;-81
2022/07/26 04:36:37;;;;;;;;;;;;;;;;;;4951106;29;19937;-83
2022/07/26 04:39:03;;;;;;;;;;;;;;;;;;4955377;29;19917;-82
2022/07/26 04:41:28;;;;;;;;;;;;;;;;;;4955285;29;20382;-82
2022/07/26 04:43:54;;;;;;;;;;;;;;;;;;4955957;28;19914;-81
2022/07/26 04:46:35;;;;;;;;;;;;;;;;;;4943394;29;20124;-80
2022/07/26 04:49:01;;;;;;;;;;;;;;;;;;4938412;29;19961;-81
2022/07/26 04:51:26;;;;;;;;;;;;;;;;;;4954424;29;19915;-81
2022/07/26 04:53:51;;;;;;;;;;;;;;;;;;4950681;28;20017;-82
2022/07/26 04:56:17;;;;;;;;;;;;;;;;;;4955289;29;19949;-80
2022/07/26 04:58:42;;;;;;;;;;;;;;;;;;4955217;29;19915;-79
2022/07/26 05:01:08;;;;;;;;;;;;;;;;;;4954934;29;20298;-79
2022/07/26 05:03:33;;;;;;;;;;;;;;;;;;4954745;28;19930;-82
2022/07/26 05:05:59;;;;;;;;;;;;;;;;;;4937840;29;20394;-79
2022/07/26 05:08:24;;;;;;;;;;;;;;;;;;4953886;28;19914;-79
2022/07/26 05:10:49;;;;;;;;;;;;;;;;;;4950169;29;19965;-79
2022/07/26 05:13:15;;;;;;;;;;;;;;;;;;4954215;28;19918;-78
2022/07/26 05:15:40;;;;;;;;;;;;;;;;;;4954925;28;19915;-81
2022/07/26 05:18:05;;;;;;;;;;;;;;;;;;4938272;29;19915;-82
2022/07/26 05:20:31;;;;;;;;;;;;;;;;;;4955471;29;19922;-82
2022/07/26 05:22:56;;;;;;;;;;;;;;;;;;4955059;29;20013;-82
2022/07/26 05:25:21;;;;;;;;;;;;;;;;;;4954926;28;19950;-81
2022/07/26 05:27:47;;;;;;;;;;;;;;;;;;4939357;29;20344;-82
2022/07/26 05:30:12;;;;;;;;;;;;;;;;;;4936068;29;19922;-83
2022/07/26 05:32:38;;;;;;;;;;;;;;;;;;4903861;29;19930;-82
2022/07/26 05:35:03;;;;;;;;;;;;;;;;;;4918910;29;19942;-80
2022/07/26 05:37:28;;;;;;;;;;;;;;;;;;4918779;29;20294;-83
2022/07/26 05:39:54;;;;;;;;;;;;;;;;;;4918811;29;20001;-81
2022/07/26 05:42:19;;;;;;;;;;;;;;;;;;4938612;29;20301;-83
2022/07/26 05:44:45;;;;;;;;;;;;;;;;;;4937487;29;20010;-85
2022/07/26 05:47:10;;;;;;;;;;;;;;;;;;4936890;29;19914;-81
2022/07/26 05:49:35;;;;;;;;;;;;;;;;;;4919550;29;19915;-84
2022/07/26 05:52:01;;;;;;;;;;;;;;;;;;4936211;29;19914;-84
2022/07/26 05:54:26;;;;;;;;;;;;;;;;;;4935352;29;19919;-85
2022/07/26 05:56:51;;;;;;;;;;;;;;;;;;4919221;29;19921;-85
2022/07/26 05:59:17;;;;;;;;;;;;;;;;;;4918636;29;19915;-84
2022/07/26 06:01:42;;;;;;;;;;;;;;;;;;4942703;29;20305;-84
2022/07/26 06:04:09;;;;;;;;;;;;;;;;;;4954365;28;19978;-83
2022/07/26 06:06:34;;;;;;;;;;;;;;;;;;4937720;29;19914;-83
2022/07/26 06:08:59;;;;;;;;;;;;;;;;;;4937050;29;19969;-82
2022/07/26 06:11:25;;;;;;;;;;;;;;;;;;4937076;29;19993;-84
2022/07/26 06:13:50;;;;;;;;;;;;;;;;;;4954052;28;19919;-82
2022/07/26 06:16:16;;;;;;;;;;;;;;;;;;4954057;29;19921;-83
2022/07/26 06:18:41;;;;;;;;;;;;;;;;;;4937249;29;19914;-81
2022/07/26 06:21:07;;;;;;;;;;;;;;;;;;4949281;28;20648;-86
2022/07/26 06:23:32;;;;;;;;;;;;;;;;;;4953462;28;19918;-83
2022/07/26 06:25:58;;;;;;;;;;;;;;;;;;4956537;28;19921;-80
2022/07/26 06:28:23;;;;;;;;;;;;;;;;;;4940905;29;19997;-83
2022/07/26 06:30:48;;;;;;;;;;;;;;;;;;4940939;29;19921;-85
2022/07/26 06:33:14;;;;;;;;;;;;;;;;;;4941026;29;19961;-86
2022/07/26 06:35:39;;;;;;;;;;;;;;;;;;4958746;28;19922;-85
2022/07/26 06:38:04;;;;;;;;;;;;;;;;;;4927729;28;19915;-84
2022/07/26 06:40:30;;;;;;;;;;;;;;;;;;4957731;29;20166;-81
2022/07/26 06:42:55;;;;;;;;;;;;;;;;;;4933336;29;20378;-84
2022/07/26 06:45:20;;;;;;;;;;;;;;;;;;4949477;29;19938;-79
2022/07/26 06:47:46;;;;;;;;;;;;;;;;;;4940215;29;20402;-81
2022/07/26 06:50:11;;;;;;;;;;;;;;;;;;4941390;29;19914;-86
2022/07/26 06:52:36;;;;;;;;;;;;;;;;;;4957091;29;19922;-81
2022/07/26 06:55:02;;;;;;;;;;;;;;;;;;4932866;29;20488;-82
2022/07/26 06:57:27;;;;;;;;;;;;;;;;;;4950049;29;19919;-82
2022/07/26 06:59:53;;;;;;;;;;;;;;;;;;4957539;29;19953;-83
2022/07/26 07:02:18;;;;;;;;;;;;;;;;;;4925068;29;20005;-83
2022/07/26 07:04:44;;;;;;;;;;;;;;;;;;4940412;29;19922;-83
2022/07/26 07:07:09;;;;;;;;;;;;;;;;;;4957580;29;19914;-83
2022/07/26 07:09:34;;;;;;;;;;;;;;;;;;4940185;29;20024;-83
2022/07/26 07:12:01;;;;;;;;;;;;;;;;;;4957336;29;19918;-85
2022/07/26 07:14:26;;;;;;;;;;;;;;;;;;4957462;29;19926;-84
2022/07/26 07:16:52;;;;;;;;;;;;;;;;;;4957598;29;19910;-83
2022/07/26 07:19:17;;;;;;;;;;;;;;;;;;4957656;29;20370;-85
2022/07/26 07:21:42;;;;;;;;;;;;;;;;;;4941072;29;19981;-85
2022/07/26 07:24:08;;;;;;;;;;;;;;;;;;4940139;29;19914;-85
2022/07/26 07:26:33;;;;;;;;;;;;;;;;;;4957889;29;19914;-85
2022/07/26 07:28:59;;;;;;;;;;;;;;;;;;4956817;29;19915;-83
2022/07/26 07:31:24;;;;;;;;;;;;;;;;;;4946237;29;20279;-85
2022/07/26 07:33:49;;;;;;;;;;;;;;;;;;4955619;28;19918;-81
2022/07/26 07:36:15;;;;;;;;;;;;;;;;;;4955592;28;19922;-82
2022/07/26 07:38:40;;;;;;;;;;;;;;;;;;4955499;29;20402;-83
2022/07/26 07:41:05;;;;;;;;;;;;;;;;;;4956149;29;19954;-83
2022/07/26 07:43:31;;;;;;;;;;;;;;;;;;4939831;29;20381;-83
2022/07/26 07:45:56;;;;;;;;;;;;;;;;;;4957447;29;19914;-87
2022/07/26 07:48:22;;;;;;;;;;;;;;;;;;4938854;29;19965;-85
2022/07/26 07:50:47;;;;;;;;;;;;;;;;;;4935652;29;19930;-79
2022/07/26 07:53:12;;;;;;;;;;;;;;;;;;4926814;29;19943;-88
2022/07/26 07:55:38;;;;;;;;;;;;;;;;;;4923558;29;19957;-88
2022/07/26 07:58:03;;;;;;;;;;;;;;;;;;4946087;29;19914;-88
2022/07/26 08:00:28;;;;;;;;;;;;;;;;;;4907411;29;20015;-88
2022/07/26 08:02:54;;;;;;;;;;;;;;;;;;4927402;29;19914;-85
2022/07/26 08:05:19;;;;;;;;;;;;;;;;;;4910368;29;19914;-86
2022/07/26 08:07:45;;;;;;;;;;;;;;;;;;4936141;29;19915;-79
2022/07/26 08:10:10;;;;;;;;;;;;;;;;;;4955560;29;19922;-83
2022/07/26 08:12:35;;;;;;;;;;;;;;;;;;4960845;28;20005;-85
2022/07/26 08:15:01;;;;;;;;;;;;;;;;;;4974396;28;20412;-85
2022/07/26 08:17:26;;;;;;;;;;;;;;;;;;4975337;28;20374;-85
2022/07/26 08:19:52;;;;;;;;;;;;;;;;;;4974588;28;19914;-84
2022/07/26 08:22:17;;;;;;;;;;;;;;;;;;4974505;28;19925;-84
2022/07/26 08:24:45;;;;;;;;;;;;;;;;;;4974330;28;19918;-85
2022/07/26 08:27:11;;;;;;;;;;;;;;;;;;4970393;28;19937;-86
2022/07/26 08:29:36;;;;;;;;;;;;;;;;;;4934678;29;20386;-85
2022/07/26 08:32:01;;;;;;;;;;;;;;;;;;4955295;29;20262;-85
2022/07/26 08:34:27;;;;;;;;;;;;;;;;;;4937455;29;19966;-87
2022/07/26 08:37:15;;;;;;;;;;;;;;;;;;4923528;29;19926;-84
2022/07/26 08:39:40;;;;;;;;;;;;;;;;;;4906158;29;19969;-85
2022/07/26 08:42:05;;;;;;;;;;;;;;;;;;4937507;29;19950;-84
2022/07/26 08:44:31;;;;;;;;;;;;;;;;;;4937331;29;19915;-84
2022/07/26 08:46:56;;;;;;;;;;;;;;;;;;4932434;29;19941;-83
2022/07/26 08:49:21;;;;;;;;;;;;;;;;;;4921409;29;19914;-85
2022/07/26 08:51:47;;;;;;;;;;;;;;;;;;4937325;29;20366;-83
2022/07/26 08:54:12;;;;;;;;;;;;;;;;;;4937383;29;19918;-84
2022/07/26 08:56:37;;;;;;;;;;;;;;;;;;4921968;29;19918;-84
2022/07/26 08:59:03;;;;;;;;;;;;;;;;;;4954658;29;19930;-83
2022/07/26 09:01:28;;;;;;;;;;;;;;;;;;4951694;29;20319;-83
2022/07/26 09:03:53;;;;;;;;;;;;;;;;;;4952335;28;19920;-83
2022/07/26 09:06:19;;;;;;;;;;;;;;;;;;4937119;29;20279;-81
2022/07/26 09:08:44;;;;;;;;;;;;;;;;;;4937336;29;19961;-84
2022/07/26 09:11:10;;;;;;;;;;;;;;;;;;4921697;29;20346;-85
2022/07/26 09:13:35;;;;;;;;;;;;;;;;;;4937159;28;20342;-85
2022/07/26 09:16:00;;;;;;;;;;;;;;;;;;4954348;29;19915;-86
2022/07/26 09:18:26;;;;;;;;;;;;;;;;;;4937468;29;19922;-83
2022/07/26 09:20:51;;;;;;;;;;;;;;;;;;4949493;29;20291;-85
2022/07/26 09:23:16;;;;;;;;;;;;;;;;;;4936975;29;20390;-84
2022/07/26 09:25:42;;;;;;;;;;;;;;;;;;4954000;28;20408;-85
2022/07/26 09:28:07;;;;;;;;;;;;;;;;;;4953994;29;19925;-84
2022/07/26 09:30:33;;;;;;;;;;;;;;;;;;4921400;29;19960;-84
2022/07/26 09:32:58;;;;;;;;;;;;;;;;;;4936759;29;19919;-86
2022/07/26 09:35:24;;;;;;;;;;;;;;;;;;4916555;29;20405;-85
2022/07/26 09:37:49;;;;;;;;;;;;;;;;;;4936863;29;20013;-83
2022/07/26 09:40:14;;;;;;;;;;;;;;;;;;4936975;29;20136;-84
2022/07/26 09:42:40;;;;;;;;;;;;;;;;;;4953710;29;19921;-86
2022/07/26 09:45:05;;;;;;;;;;;;;;;;;;4953756;28;19915;-86
2022/07/26 09:47:30;;;;;;;;;;;;;;;;;;4955230;29;19914;-86
2022/07/26 09:49:56;;;;;;;;;;;;;;;;;;4921671;29;19970;-88
2022/07/26 09:52:21;;;;;;;;;;;;;;;;;;4953897;29;19961;-84
2022/07/26 09:54:48;;;;;;;;;;;;;;;;;;4948931;29;19940;-84
2022/07/26 09:57:13;;;;;;;;;;;;;;;;;;4936506;29;19914;-85
2022/07/26 09:59:38;;;;;;;;;;;;;;;;;;4938091;29;20270;-85
2022/07/26 10:02:04;;;;;;;;;;;;;;;;;;4958580;29;19915;-85
2022/07/26 10:04:30;;;;;;;;;;;;;;;;;;4939983;29;19922;-84
2022/07/26 10:07:00;;;;;;;;;;;;;;;;;;4940389;29;19915;-86
2022/07/26 10:09:25;;;;;;;;;;;;;;;;;;4939661;29;19914;-85
2022/07/26 10:11:51;;;;;;;;;;;;;;;;;;4953789;29;19921;-83
2022/07/26 10:14:16;;;;;;;;;;;;;;;;;;4940302;29;19919;-85
2022/07/26 10:16:41;;;;;;;;;;;;;;;;;;4940227;29;19918;-85
2022/07/26 10:19:07;;;;;;;;;;;;;;;;;;4940051;29;20401;-84
2022/07/26 10:21:34;;;;;;;;;;;;;;;;;;4957369;29;19962;-84
2022/07/26 10:23:59;;;;;;;;;;;;;;;;;;4924800;29;19915;-81
2022/07/26 10:26:24;;;;;;;;;;;;;;;;;;4940182;29;19915;-84
2022/07/26 10:28:50;;;;;;;;;;;;;;;;;;4952696;29;20381;-84
2022/07/26 10:31:15;;;;;;;;;;;;;;;;;;4957323;29;19914;-84
2022/07/26 10:33:40;;;;;;;;;;;;;;;;;;4957101;28;19969;-85
2022/07/26 10:36:06;;;;;;;;;;;;;;;;;;4941007;29;20375;-84
2022/07/26 10:38:31;;;;;;;;;;;;;;;;;;4958540;29;19910;-85
2022/07/26 10:40:57;;;;;;;;;;;;;;;;;;4940475;29;20061;-86
2022/07/26 10:43:22;;;;;;;;;;;;;;;;;;4938333;29;19945;-85
2022/07/26 10:45:47;;;;;;;;;;;;;;;;;;4922358;29;19926;-86
2022/07/26 10:48:13;;;;;;;;;;;;;;;;;;4957801;29;19989;-84
2022/07/26 10:50:38;;;;;;;;;;;;;;;;;;4940183;29;19926;-82
2022/07/26 10:53:04;;;;;;;;;;;;;;;;;;4908572;29;20334;-81
2022/07/26 10:55:29;;;;;;;;;;;;;;;;;;4957024;28;19918;-82
2022/07/26 10:57:54;;;;;;;;;;;;;;;;;;4957101;29;19914;-81
2022/07/26 11:00:20;;;;;;;;;;;;;;;;;;4957091;29;19949;-83
2022/07/26 11:02:45;;;;;;;;;;;;;;;;;;4935057;29;20010;-82
2022/07/26 11:05:14;;;;;;;;;;;;;;;;;;4940153;29;19924;-82
2022/07/26 11:07:39;;;;;;;;;;;;;;;;;;4940149;29;19993;-82
2022/07/26 11:10:05;;;;;;;;;;;;;;;;;;4940048;29;20001;-81
2022/07/26 11:12:30;;;;;;;;;;;;;;;;;;4938724;29;19918;-83
2022/07/26 11:14:56;;;;;;;;;;;;;;;;;;4923599;29;19925;-85
2022/07/26 11:17:21;;;;;;;;;;;;;;;;;;4923604;29;19915;-85
2022/07/26 11:19:47;;;;;;;;;;;;;;;;;;4939585;29;19915;-82
2022/07/26 11:22:12;;;;;;;;;;;;;;;;;;4939083;29;19914;-82
2022/07/26 11:24:39;;;;;;;;;;;;;;;;;;4923763;29;19933;-82
2022/07/26 11:27:04;;;;;;;;;;;;;;;;;;4939362;29;19926;-82
2022/07/26 11:29:30;;;;;;;;;;;;;;;;;;4923771;29;19921;-82
2022/07/26 11:31:56;;;;;;;;;;;;;;;;;;4956313;29;19997;-81
2022/07/26 11:34:21;;;;;;;;;;;;;;;;;;4921157;29;19962;-82
2022/07/26 11:36:47;;;;;;;;;;;;;;;;;;4953019;29;20433;-82
2022/07/26 11:39:12;;;;;;;;;;;;;;;;;;4940281;29;19921;-82
2022/07/26 11:41:38;;;;;;;;;;;;;;;;;;4968145;28;19922;-83
2022/07/26 11:44:03;;;;;;;;;;;;;;;;;;4953303;29;20341;-82
2022/07/26 11:46:28;;;;;;;;;;;;;;;;;;4956299;29;19971;-82
2022/07/26 11:48:54;;;;;;;;;;;;;;;;;;4938353;29;19914;-84
2022/07/26 11:51:19;;;;;;;;;;;;;;;;;;4926235;29;19919;-83
2022/07/26 11:53:45;;;;;;;;;;;;;;;;;;4927608;29;19919;-82
2022/07/26 11:56:10;;;;;;;;;;;;;;;;;;4939069;29;19922;-83
2022/07/26 11:58:36;;;;;;;;;;;;;;;;;;4956178;29;20065;-80
2022/07/26 12:01:01;;;;;;;;;;;;;;;;;;4938633;29;19915;-83
2022/07/26 12:03:27;;;;;;;;;;;;;;;;;;4955575;28;19919;-83
2022/07/26 12:05:52;;;;;;;;;;;;;;;;;;4922438;29;19922;-83
2022/07/26 12:08:17;;;;;;;;;;;;;;;;;;4954185;29;19919;-83
2022/07/26 12:10:43;;;;;;;;;;;;;;;;;;4947180;29;20276;-83
2022/07/26 12:13:08;;;;;;;;;;;;;;;;;;4957985;28;20001;-81
2022/07/26 12:15:34;;;;;;;;;;;;;;;;;;4950597;28;19915;-82
2022/07/26 12:17:59;;;;;;;;;;;;;;;;;;4943658;29;20402;-82
2022/07/26 12:20:26;;;;;;;;;;;;;;;;;;4955343;29;20421;-83
2022/07/26 12:22:52;;;;;;;;;;;;;;;;;;4954235;28;19914;-82
2022/07/26 12:25:17;;;;;;;;;;;;;;;;;;4922243;29;19981;-82
2022/07/26 12:27:42;;;;;;;;;;;;;;;;;;4956767;29;19914;-85
2022/07/26 12:30:08;;;;;;;;;;;;;;;;;;4956043;29;19918;-80
2022/07/26 12:32:33;;;;;;;;;;;;;;;;;;4954743;29;20681;-81
2022/07/26 12:34:58;;;;;;;;;;;;;;;;;;4937683;29;19918;-82
2022/07/26 12:37:24;;;;;;;;;;;;;;;;;;4937948;29;19981;-82
2022/07/26 12:39:49;;;;;;;;;;;;;;;;;;4922788;29;19914;-81
2022/07/26 12:42:15;;;;;;;;;;;;;;;;;;4938265;29;20286;-84
2022/07/26 12:44:40;;;;;;;;;;;;;;;;;;4922704;29;19962;-81
2022/07/26 12:47:06;;;;;;;;;;;;;;;;;;4955862;29;20330;-84
2022/07/26 12:49:31;;;;;;;;;;;;;;;;;;4937955;29;19922;-83
2022/07/26 12:51:57;;;;;;;;;;;;;;;;;;4956083;29;19990;-82
2022/07/26 12:54:22;;;;;;;;;;;;;;;;;;4955687;29;19933;-82
2022/07/26 12:56:47;;;;;;;;;;;;;;;;;;4922955;29;19989;-84
2022/07/26 12:59:13;;;;;;;;;;;;;;;;;;4956386;29;20398;-82
2022/07/26 13:01:38;;;;;;;;;;;;;;;;;;4938209;29;19915;-83
2022/07/26 13:04:04;;;;;;;;;;;;;;;;;;4939043;29;19981;-79
2022/07/26 13:06:31;;;;;;;;;;;;;;;;;;4926024;29;19969;-85
2022/07/26 13:08:56;;;;;;;;;;;;;;;;;;4939728;29;19918;-83
2022/07/26 13:11:22;;;;;;;;;;;;;;;;;;4940347;29;20267;-83
2022/07/26 13:13:48;;;;;;;;;;;;;;;;;;4940893;29;19919;-85
2022/07/26 13:16:13;;;;;;;;;;;;;;;;;;4942388;29;19946;-84
2022/07/26 13:18:38;;;;;;;;;;;;;;;;;;4941698;29;19968;-85
2022/07/26 13:21:04;;;;;;;;;;;;;;;;;;4942864;29;19911;-84
2022/07/26 13:23:29;;;;;;;;;;;;;;;;;;4923800;28;19925;-83
2022/07/26 13:25:55;;;;;;;;;;;;;;;;;;4907181;29;20004;-84
2022/07/26 13:28:20;;;;;;;;;;;;;;;;;;4937532;29;19953;-84
2022/07/26 13:30:45;;;;;;;;;;;;;;;;;;4936787;29;19915;-85
2022/07/26 13:33:11;;;;;;;;;;;;;;;;;;4920587;29;19921;-85
2022/07/26 13:35:38;;;;;;;;;;;;;;;;;;4954704;28;20326;-85
2022/07/26 13:38:03;;;;;;;;;;;;;;;;;;4937239;29;20362;-86
2022/07/26 13:40:28;;;;;;;;;;;;;;;;;;4937256;29;19919;-85
2022/07/26 13:42:54;;;;;;;;;;;;;;;;;;4955659;29;20294;-85
2022/07/26 13:45:19;;;;;;;;;;;;;;;;;;4936879;29;19915;-85
2022/07/26 13:47:45;;;;;;;;;;;;;;;;;;4953123;29;19973;-84
2022/07/26 13:50:11;;;;;;;;;;;;;;;;;;4936720;29;19914;-85
2022/07/26 13:52:36;;;;;;;;;;;;;;;;;;4935530;29;19922;-85
2022/07/26 13:55:01;;;;;;;;;;;;;;;;;;4934802;29;20395;-87
2022/07/26 13:57:27;;;;;;;;;;;;;;;;;;4918063;29;19963;-86
2022/07/26 13:59:52;;;;;;;;;;;;;;;;;;4917622;29;20314;-85
2022/07/26 14:02:18;;;;;;;;;;;;;;;;;;4902502;29;20366;-85
2022/07/26 14:04:43;;;;;;;;;;;;;;;;;;4917732;29;19961;-86
2022/07/26 14:07:08;;;;;;;;;;;;;;;;;;4918926;29;19927;-85
2022/07/26 14:09:34;;;;;;;;;;;;;;;;;;4934880;29;19922;-86
2022/07/26 14:11:59;;;;;;;;;;;;;;;;;;4917911;29;20492;-86
2022/07/26 14:14:24;;;;;;;;;;;;;;;;;;4936088;29;19922;-85
2022/07/26 14:16:50;;;;;;;;;;;;;;;;;;4936703;29;19918;-87
2022/07/26 14:19:15;;;;;;;;;;;;;;;;;;4953783;29;20309;-86
2022/07/26 14:21:40;;;;;;;;;;;;;;;;;;4936409;29;19914;-85
2022/07/26 14:24:06;;;;;;;;;;;;;;;;;;4930217;29;19915;-85
2022/07/26 14:26:31;;;;;;;;;;;;;;;;;;4916961;29;20319;-84
2022/07/26 14:28:57;;;;;;;;;;;;;;;;;;4901796;29;19914;-85
2022/07/26 14:31:22;;;;;;;;;;;;;;;;;;4901722;29;19925;-86
2022/07/26 14:33:48;;;;;;;;;;;;;;;;;;4917353;29;19938;-85
2022/07/26 14:36:13;;;;;;;;;;;;;;;;;;4933377;29;20298;-86
2022/07/26 14:38:39;;;;;;;;;;;;;;;;;;4934762;29;19914;-85
2022/07/26 14:41:04;;;;;;;;;;;;;;;;;;4936651;29;19946;-84
2022/07/26 14:43:30;;;;;;;;;;;;;;;;;;4953848;28;20018;-86
2022/07/26 14:45:56;;;;;;;;;;;;;;;;;;4955248;28;20303;-85
2022/07/26 14:48:21;;;;;;;;;;;;;;;;;;4958715;29;20269;-86
2022/07/26 14:50:46;;;;;;;;;;;;;;;;;;4941992;29;19915;-83
2022/07/26 14:53:12;;;;;;;;;;;;;;;;;;4932465;29;19914;-84
2022/07/26 14:55:37;;;;;;;;;;;;;;;;;;4933922;29;20322;-85
2022/07/26 14:58:03;;;;;;;;;;;;;;;;;;4967575;29;19914;-86
2022/07/26 15:00:28;;;;;;;;;;;;;;;;;;4953939;29;19919;-84
2022/07/26 15:02:53;;;;;;;;;;;;;;;;;;4972115;29;19914;-85
2022/07/26 15:05:19;;;;;;;;;;;;;;;;;;4951195;29;19914;-84
2022/07/26 15:07:44;;;;;;;;;;;;;;;;;;4955248;29;20006;-84
2022/07/26 15:10:10;;;;;;;;;;;;;;;;;;4940361;29;20132;-84
2022/07/26 15:12:35;;;;;;;;;;;;;;;;;;4974387;29;19950;-86
2022/07/26 15:15:01;;;;;;;;;;;;;;;;;;4952694;29;19922;-85
2022/07/26 15:17:26;;;;;;;;;;;;;;;;;;4967446;29;20330;-86
2022/07/26 15:19:51;;;;;;;;;;;;;;;;;;4949272;29;19914;-84
2022/07/26 15:22:17;;;;;;;;;;;;;;;;;;4966997;29;19929;-85
2022/07/26 15:24:42;;;;;;;;;;;;;;;;;;4965820;28;19918;-84
2022/07/26 15:27:08;;;;;;;;;;;;;;;;;;4962094;29;20366;-87
2022/07/26 15:29:34;;;;;;;;;;;;;;;;;;4940090;29;19966;-87
2022/07/26 15:32:00;;;;;;;;;;;;;;;;;;4951909;29;20430;-86
2022/07/26 15:34:25;;;;;;;;;;;;;;;;;;4930220;29;19926;-86
2022/07/26 15:36:51;;;;;;;;;;;;;;;;;;4922962;29;20432;-89
2022/07/26 15:39:16;;;;;;;;;;;;;;;;;;4938459;29;20342;-87
2022/07/26 15:41:42;;;;;;;;;;;;;;;;;;4930177;29;19924;-89
2022/07/26 15:44:07;;;;;;;;;;;;;;;;;;4917763;29;20024;-78
2022/07/26 15:46:32;;;;;;;;;;;;;;;;;;4941456;29;19954;-86
2022/07/26 15:48:58;;;;;;;;;;;;;;;;;;4923294;29;19938;-85
2022/07/26 15:51:24;;;;;;;;;;;;;;;;;;4970959;28;19961;-84
2022/07/26 15:53:49;;;;;;;;;;;;;;;;;;4958804;28;20005;-86
2022/07/26 15:56:14;;;;;;;;;;;;;;;;;;4938683;29;19950;-83
2022/07/26 15:58:40;;;;;;;;;;;;;;;;;;4924514;29;20374;-89
2022/07/26 16:01:05;;;;;;;;;;;;;;;;;;4932835;29;20005;-84
2022/07/26 16:03:30;;;;;;;;;;;;;;;;;;4943411;28;19922;-84
2022/07/26 16:05:56;;;;;;;;;;;;;;;;;;4933786;29;19915;-84
2022/07/26 16:08:21;;;;;;;;;;;;;;;;;;4947549;29;19953;-84
2022/07/26 16:10:47;;;;;;;;;;;;;;;;;;4911330;29;19915;-82
2022/07/26 16:13:12;;;;;;;;;;;;;;;;;;4940083;29;20046;-83
2022/07/26 16:15:37;;;;;;;;;;;;;;;;;;4961907;28;20050;-83
2022/07/26 16:18:03;;;;;;;;;;;;;;;;;;4939362;29;20053;-83
2022/07/26 16:20:28;;;;;;;;;;;;;;;;;;4936614;29;19921;-83
2022/07/26 16:22:53;;;;;;;;;;;;;;;;;;4946160;29;20385;-82
2022/07/26 16:25:19;;;;;;;;;;;;;;;;;;4944949;29;19919;-83
2022/07/26 16:27:44;;;;;;;;;;;;;;;;;;4931208;29;19970;-83
2022/07/26 16:30:10;;;;;;;;;;;;;;;;;;4953488;28;20013;-83
2022/07/26 16:32:35;;;;;;;;;;;;;;;;;;4937715;29;19917;-81
2022/07/26 16:35:01;;;;;;;;;;;;;;;;;;4955212;28;19953;-81
2022/07/26 16:37:26;;;;;;;;;;;;;;;;;;4941523;29;19915;-85